Time;durP1;ratioP1;P1;durP2;ratioP2;P2;SDS_P1;SDS_P2;PMS_P1;PMS_P2;Temp;Humidity;BMP_temperature;BMP_pressure;BME280_temperature;BME280_humidity;BME280_pressure;Samples;Min_cycle;Max_cycle;Signal;HPM_P1;HPM_P2
2023/04/22 00:02:08;;;;;;;7.03;3.95;;;12.50;94.50;;;;;;5002957;28;20330;-70
2023/04/22 00:04:34;;;;;;;10.38;4.05;;;12.40;94.40;;;;;;5009084;28;20026;-70
2023/04/22 00:07:01;;;;;;;5.95;3.97;;;12.40;94.40;;;;;;5010762;28;20026;-70
2023/04/22 00:09:26;;;;;;;5.93;3.63;;;12.40;94.50;;;;;;5008920;28;20327;-71
2023/04/22 00:11:52;;;;;;;6.32;3.88;;;12.40;94.20;;;;;;5020101;28;20026;-71
2023/04/22 00:14:17;;;;;;;8.02;4.35;;;12.40;94.10;;;;;;5014703;28;20387;-69
2023/04/22 00:16:43;;;;;;;6.57;3.58;;;12.40;94.10;;;;;;5014679;28;20304;-70
2023/04/22 00:19:09;;;;;;;6.72;3.30;;;12.40;94.00;;;;;;5014373;28;20109;-69
2023/04/22 00:21:35;;;;;;;5.07;3.05;;;12.40;94.20;;;;;;5008846;28;20108;-71
2023/04/22 00:24:00;;;;;;;6.20;3.67;;;12.40;94.00;;;;;;5007351;28;20037;-70
2023/04/22 00:26:26;;;;;;;5.50;3.42;;;12.40;93.70;;;;;;5003668;28;20114;-70
2023/04/22 00:28:52;;;;;;;5.43;3.13;;;12.40;93.70;;;;;;5002870;28;20042;-70
2023/04/22 00:31:17;;;;;;;5.32;3.08;;;12.40;93.60;;;;;;4995862;28;20346;-70
2023/04/22 00:33:43;;;;;;;5.68;3.10;;;12.40;93.60;;;;;;4998847;28;20034;-69
2023/04/22 00:36:08;;;;;;;5.75;3.20;;;12.40;93.20;;;;;;5006770;28;20650;-70
2023/04/22 00:38:34;;;;;;;5.95;3.00;;;12.40;93.30;;;;;;5005917;28;21749;-70
2023/04/22 00:41:00;;;;;;;4.90;2.95;;;12.30;93.30;;;;;;4999546;28;20034;-70
2023/04/22 00:43:25;;;;;;;6.28;3.00;;;12.30;92.80;;;;;;4999710;28;20381;-70
2023/04/22 00:45:55;;;;;;;6.38;2.95;;;12.30;93.10;;;;;;5007030;28;20030;-69
2023/04/22 00:48:22;;;;;;;5.32;2.90;;;12.20;93.50;;;;;;5009325;28;20022;-70
2023/04/22 00:50:48;;;;;;;5.88;2.90;;;12.10;93.90;;;;;;4996492;28;20473;-70
2023/04/22 00:53:13;;;;;;;4.75;2.70;;;12.00;94.30;;;;;;5009996;28;20042;-70
2023/04/22 00:55:39;;;;;;;5.30;2.70;;;11.90;94.60;;;;;;5009501;28;20100;-69
2023/04/22 00:58:05;;;;;;;4.53;2.50;;;11.90;94.50;;;;;;5014729;28;20058;-69
2023/04/22 01:00:31;;;;;;;5.63;3.08;;;11.90;94.00;;;;;;5002567;28;20030;-69
2023/04/22 01:02:56;;;;;;;4.93;2.75;;;11.90;93.10;;;;;;4997209;28;20030;-68
2023/04/22 01:05:32;;;;;;;4.80;2.15;;;12.00;92.80;;;;;;5005984;28;20026;-69
2023/04/22 01:07:58;;;;;;;5.15;2.40;;;12.00;91.40;;;;;;5015162;28;20034;-69
2023/04/22 01:10:24;;;;;;;4.93;2.25;;;12.10;91.00;;;;;;5004588;28;20040;-69
2023/04/22 01:12:49;;;;;;;4.45;2.17;;;12.10;90.70;;;;;;5009580;28;20101;-70
2023/04/22 01:15:18;;;;;;;4.20;2.20;;;12.20;89.70;;;;;;5003398;28;20330;-70
2023/04/22 01:17:44;;;;;;;4.50;2.08;;;12.20;89.60;;;;;;4996491;28;20323;-70
2023/04/22 01:20:11;;;;;;;3.83;2.03;;;12.20;90.10;;;;;;5007599;28;20030;-70
2023/04/22 01:22:43;;;;;;;3.72;1.90;;;12.10;89.90;;;;;;4997625;28;20029;-68
2023/04/22 01:25:10;;;;;;;3.63;1.90;;;12.10;89.60;;;;;;5012140;28;20080;-70
2023/04/22 01:27:36;;;;;;;4.05;2.20;;;12.20;89.70;;;;;;5009014;28;20459;-70
2023/04/22 01:30:03;;;;;;;3.72;2.13;;;12.10;89.50;;;;;;5007403;28;20026;-70
2023/04/22 01:32:29;;;;;;;3.63;2.00;;;12.10;89.40;;;;;;5008618;28;20030;-70
2023/04/22 01:34:55;;;;;;;3.63;1.77;;;12.10;89.50;;;;;;5012322;28;20434;-70
2023/04/22 01:37:21;;;;;;;3.60;1.80;;;12.20;88.90;;;;;;5016638;28;20076;-69
2023/04/22 01:39:47;;;;;;;5.88;2.17;;;12.20;87.90;;;;;;5015384;28;20065;-70
2023/04/22 01:42:13;;;;;;;5.15;2.20;;;12.30;88.40;;;;;;5000379;28;20027;-70
2023/04/22 01:44:39;;;;;;;3.50;1.73;;;12.30;88.40;;;;;;5001918;28;20101;-70
2023/04/22 01:47:05;;;;;;;3.72;1.80;;;12.20;88.10;;;;;;5018086;28;20318;-70
2023/04/22 01:49:30;;;;;;;3.38;1.70;;;12.20;87.90;;;;;;5008128;28;20045;-70
2023/04/22 01:51:57;;;;;;;3.40;1.52;;;12.20;87.70;;;;;;5018961;28;20060;-70
2023/04/22 01:54:22;;;;;;;4.82;1.60;;;12.20;86.50;;;;;;5017433;28;20033;-70
2023/04/22 01:56:57;;;;;;;3.42;1.52;;;12.20;86.20;;;;;;5016232;28;20026;-70
2023/04/22 01:59:23;;;;;;;3.90;2.10;;;12.20;86.20;;;;;;4998008;28;20034;-69
2023/04/22 02:01:48;;;;;;;3.55;1.65;;;12.20;86.50;;;;;;5045324;28;20113;-70
2023/04/22 02:04:14;;;;;;;2.78;1.60;;;12.10;87.10;;;;;;5011217;28;20026;-70
2023/04/22 02:06:40;;;;;;;4.72;1.70;;;12.10;86.40;;;;;;4999923;28;20093;-70
2023/04/22 02:09:05;;;;;;;3.70;1.70;;;12.10;86.80;;;;;;5002937;28;20038;-70
2023/04/22 02:11:31;;;;;;;3.78;1.60;;;12.10;86.30;;;;;;4999590;28;20037;-70
2023/04/22 02:13:57;;;;;;;4.10;1.90;;;12.10;85.30;;;;;;5005657;28;20045;-70
2023/04/22 02:16:22;;;;;;;3.20;1.65;;;12.10;86.40;;;;;;5030028;28;20034;-69
2023/04/22 02:18:48;;;;;;;3.95;1.70;;;12.00;87.30;;;;;;5015112;28;20393;-70
2023/04/22 02:21:14;;;;;;;4.57;1.60;;;11.90;88.20;;;;;;5020534;28;20018;-70
2023/04/22 02:23:40;;;;;;;4.80;1.88;;;11.70;88.90;;;;;;5019091;28;20049;-70
2023/04/22 02:26:09;;;;;;;3.90;1.95;;;11.60;89.20;;;;;;5002351;28;20037;-71
2023/04/22 02:28:35;;;;;;;2.83;1.65;;;11.50;88.90;;;;;;4998359;28;20081;-69
2023/04/22 02:31:00;;;;;;;4.13;1.83;;;11.40;88.50;;;;;;4998541;28;20031;-69
2023/04/22 02:33:26;;;;;;;4.07;1.90;;;11.30;89.50;;;;;;5017593;28;20034;-70
2023/04/22 02:35:51;;;;;;;3.53;1.80;;;11.10;90.60;;;;;;5018644;28;20382;-69
2023/04/22 02:38:18;;;;;;;3.92;1.83;;;10.90;93.10;;;;;;5009000;28;20026;-70
2023/04/22 02:40:43;;;;;;;5.55;1.83;;;10.50;94.10;;;;;;4997986;28;20045;-70
2023/04/22 02:43:09;;;;;;;4.15;1.92;;;10.20;94.40;;;;;;4999343;28;20105;-70
2023/04/22 02:45:34;;;;;;;6.70;2.38;;;10.00;95.40;;;;;;4997249;28;20471;-70
2023/04/22 02:48:00;;;;;;;4.82;2.03;;;9.80;96.10;;;;;;5006833;28;20026;-70
2023/04/22 02:50:25;;;;;;;3.78;1.90;;;9.60;96.50;;;;;;4999255;28;20563;-69
2023/04/22 02:52:51;;;;;;;4.20;1.98;;;9.40;96.90;;;;;;5009848;28;20365;-70
2023/04/22 02:55:17;;;;;;;4.60;1.77;;;9.30;97.30;;;;;;5004106;28;20026;-69
2023/04/22 02:57:42;;;;;;;4.38;2.42;;;9.10;97.30;;;;;;5009094;28;20057;-69
2023/04/22 03:00:09;;;;;;;6.00;2.20;;;9.00;97.40;;;;;;5004535;28;20065;-69
2023/04/22 03:02:35;;;;;;;3.72;1.85;;;8.90;97.60;;;;;;5015436;28;20026;-69
2023/04/22 03:05:01;;;;;;;6.45;1.95;;;8.80;97.70;;;;;;5000617;28;20316;-70
2023/04/22 03:07:26;;;;;;;3.90;1.90;;;8.80;97.80;;;;;;5018264;28;20017;-69
2023/04/22 03:09:54;;;;;;;6.55;2.30;;;8.80;97.70;;;;;;5014644;28;20037;-69
2023/04/22 03:12:20;;;;;;;4.35;2.10;;;8.80;97.70;;;;;;5016549;28;20026;-69
2023/04/22 03:14:46;;;;;;;3.33;1.60;;;8.80;97.70;;;;;;5016443;28;20049;-70
2023/04/22 03:17:11;;;;;;;4.30;2.00;;;8.80;97.90;;;;;;5016976;28;20030;-70
2023/04/22 03:19:37;;;;;;;4.60;2.15;;;8.80;97.90;;;;;;5020755;28;20042;-69
2023/04/22 03:22:03;;;;;;;3.17;1.90;;;8.80;97.60;;;;;;5017923;28;21197;-69
2023/04/22 03:24:28;;;;;;;4.65;2.03;;;8.90;98.00;;;;;;5003198;28;20073;-70
2023/04/22 03:26:54;;;;;;;3.95;2.00;;;8.90;97.90;;;;;;5022814;28;20036;-69
2023/04/22 03:29:19;;;;;;;4.18;2.47;;;8.90;97.80;;;;;;5029152;28;20033;-69
2023/04/22 03:31:45;;;;;;;5.57;2.20;;;8.90;97.80;;;;;;5017371;28;20034;-71
2023/04/22 03:34:10;;;;;;;4.95;2.47;;;8.80;97.80;;;;;;4999633;28;20030;-69
2023/04/22 03:36:36;;;;;;;3.90;2.20;;;8.80;97.80;;;;;;4998014;28;20073;-69
2023/04/22 03:39:01;;;;;;;4.20;2.17;;;8.80;97.90;;;;;;4998406;28;20034;-70
2023/04/22 03:41:30;;;;;;;4.65;2.55;;;8.80;98.00;;;;;;4997977;28;20030;-70
2023/04/22 03:43:55;;;;;;;4.50;2.28;;;8.90;97.80;;;;;;4998376;28;20087;-70
2023/04/22 03:46:21;;;;;;;5.13;2.92;;;8.80;97.80;;;;;;5031349;28;20108;-70
2023/04/22 03:48:46;;;;;;;4.03;2.40;;;8.80;97.90;;;;;;5016498;28;20037;-69
2023/04/22 03:51:12;;;;;;;5.07;2.75;;;8.70;97.80;;;;;;5010638;28;20026;-69
2023/04/22 03:53:37;;;;;;;6.43;3.53;;;8.60;97.50;;;;;;4997111;28;20030;-70
2023/04/22 03:56:04;;;;;;;5.50;3.67;;;8.70;97.40;;;;;;5009307;28;20038;-69
2023/04/22 03:58:29;;;;;;;7.35;4.10;;;8.70;97.30;;;;;;4998321;28;20034;-69
2023/04/22 04:00:55;;;;;;;8.27;3.95;;;8.80;97.20;;;;;;5011167;28;20053;-68
2023/04/22 04:03:20;;;;;;;7.93;4.40;;;8.80;97.30;;;;;;5012800;28;20034;-69
2023/04/22 04:05:46;;;;;;;7.65;4.38;;;8.80;97.10;;;;;;5003265;28;20056;-70
2023/04/22 04:08:11;;;;;;;9.70;4.20;;;8.80;96.90;;;;;;5016775;28;20030;-70
2023/04/22 04:10:41;;;;;;;8.18;4.40;;;8.80;97.00;;;;;;5016230;28;20026;-70
2023/04/22 04:13:06;;;;;;;6.82;4.10;;;8.80;96.80;;;;;;5017041;28;20062;-70
2023/04/22 04:15:32;;;;;;;5.82;3.83;;;8.70;96.40;;;;;;5015367;28;20057;-70
2023/04/22 04:18:01;;;;;;;7.93;3.83;;;8.70;96.00;;;;;;5006017;28;20595;-70
2023/04/22 04:20:30;;;;;;;6.53;4.32;;;8.70;96.50;;;;;;5003931;28;20026;-70
2023/04/22 04:22:55;;;;;;;9.07;4.15;;;8.60;96.20;;;;;;5000908;28;20093;-70
2023/04/22 04:25:21;;;;;;;6.07;3.92;;;8.50;95.90;;;;;;5000363;28;20022;-70
2023/04/22 04:27:47;;;;;;;6.10;3.70;;;8.40;95.30;;;;;;5016709;28;20061;-70
2023/04/22 04:30:13;;;;;;;7.63;3.85;;;8.40;95.10;;;;;;5013852;28;20129;-70
2023/04/22 04:32:39;;;;;;;5.72;3.50;;;8.30;95.20;;;;;;5013013;28;20026;-70
2023/04/22 04:35:05;;;;;;;5.53;3.47;;;8.30;94.80;;;;;;5015373;28;20060;-70
2023/04/22 04:37:31;;;;;;;5.82;3.60;;;8.30;94.60;;;;;;5015688;28;20026;-70
2023/04/22 04:39:58;;;;;;;6.30;3.65;;;8.30;94.30;;;;;;5003786;28;20034;-70
2023/04/22 04:42:24;;;;;;;6.68;3.17;;;8.30;94.10;;;;;;5016397;28;20049;-70
2023/04/22 04:44:50;;;;;;;6.45;3.38;;;8.30;94.30;;;;;;5005517;28;20105;-69
2023/04/22 04:47:16;;;;;;;6.18;2.97;;;8.30;94.10;;;;;;5014756;28;20026;-70
2023/04/22 04:49:42;;;;;;;6.32;3.10;;;8.30;94.40;;;;;;5015671;28;20099;-70
2023/04/22 04:52:10;;;;;;;7.18;2.92;;;8.40;94.60;;;;;;5014686;28;20038;-71
2023/04/22 04:54:36;;;;;;;5.28;2.90;;;8.40;94.60;;;;;;5011568;28;20022;-70
2023/04/22 04:57:02;;;;;;;7.03;3.05;;;8.50;94.90;;;;;;5012316;28;20030;-70
2023/04/22 04:59:27;;;;;;;4.97;2.70;;;8.50;94.90;;;;;;5012543;28;20036;-69
2023/04/22 05:01:53;;;;;;;6.03;2.90;;;8.50;94.90;;;;;;5012827;28;20084;-70
2023/04/22 05:04:19;;;;;;;70.43;37.50;;;8.60;95.00;;;;;;5016524;28;20033;-70
2023/04/22 05:06:44;;;;;;;14.98;8.77;;;8.50;95.00;;;;;;5016178;28;20065;-69
2023/04/22 05:09:10;;;;;;;6.78;3.58;;;8.60;95.30;;;;;;5015191;28;20076;-69
2023/04/22 05:11:35;;;;;;;6.93;3.65;;;8.70;95.30;;;;;;5034240;28;20036;-69
2023/04/22 05:14:04;;;;;;;6.75;3.40;;;8.80;95.30;;;;;;5014688;28;20356;-70
2023/04/22 05:16:30;;;;;;;7.55;4.15;;;8.80;95.30;;;;;;5015330;28;20026;-69
2023/04/22 05:18:55;;;;;;;4.95;2.95;;;8.90;95.50;;;;;;5018330;28;20034;-71
2023/04/22 05:21:24;;;;;;;5.20;3.25;;;9.00;95.30;;;;;;5016346;28;20419;-69
2023/04/22 05:23:49;;;;;;;6.75;3.00;;;9.10;95.60;;;;;;5015128;28;20014;-70
2023/04/22 05:26:15;;;;;;;4.30;2.58;;;9.20;95.80;;;;;;5013521;28;20022;-69
2023/04/22 05:28:41;;;;;;;5.88;3.00;;;9.30;96.20;;;;;;5013755;28;20033;-70
2023/04/22 05:31:06;;;;;;;5.32;3.00;;;9.40;96.20;;;;;;5010569;28;20034;-69
2023/04/22 05:33:32;;;;;;;5.25;3.30;;;9.50;96.10;;;;;;5027644;28;20063;-68
2023/04/22 05:35:57;;;;;;;7.20;3.20;;;9.60;96.40;;;;;;5013575;28;20030;-70
2023/04/22 05:38:23;;;;;;;4.82;2.90;;;9.70;97.10;;;;;;5023288;28;20024;-69
2023/04/22 05:40:48;;;;;;;7.03;3.67;;;9.90;97.10;;;;;;5017043;28;20022;-70
2023/04/22 05:43:14;;;;;;;5.18;2.85;;;10.00;97.50;;;;;;5028488;28;20025;-70
2023/04/22 05:45:40;;;;;;;8.25;3.33;;;10.20;97.40;;;;;;5017564;28;20018;-70
2023/04/22 05:48:05;;;;;;;9.52;5.40;;;10.40;98.00;;;;;;5032703;28;20057;-71
2023/04/22 05:50:31;;;;;;;11.10;5.20;;;10.60;98.00;;;;;;5018356;28;20411;-69
2023/04/22 05:52:56;;;;;;;9.10;5.32;;;10.70;98.00;;;;;;5014846;28;20030;-70
2023/04/22 05:55:22;;;;;;;9.40;5.07;;;11.00;98.00;;;;;;5007510;28;20034;-70
2023/04/22 05:57:48;;;;;;;9.73;6.05;;;11.30;98.00;;;;;;4996391;28;20332;-70
2023/04/22 06:00:14;;;;;;;11.30;6.60;;;11.70;97.70;;;;;;5003524;28;20331;-70
2023/04/22 06:02:39;;;;;;;9.73;4.97;;;11.80;97.40;;;;;;5003713;28;20029;-70
2023/04/22 06:05:05;;;;;;;9.13;5.78;;;11.80;96.80;;;;;;5006258;28;20034;-70
2023/04/22 06:07:31;;;;;;;7.47;4.60;;;12.00;96.80;;;;;;5008069;28;20037;-70
2023/04/22 06:09:56;;;;;;;7.90;4.72;;;12.30;96.50;;;;;;5015153;28;20450;-70
2023/04/22 06:12:22;;;;;;;7.18;3.90;;;12.60;95.90;;;;;;5005208;28;20450;-70
2023/04/22 06:14:47;;;;;;;5.18;3.30;;;12.90;94.90;;;;;;5006110;28;20032;-70
2023/04/22 06:17:13;;;;;;;5.43;3.35;;;13.10;94.40;;;;;;5005491;28;20105;-70
2023/04/22 06:19:39;;;;;;;5.05;2.90;;;13.30;93.90;;;;;;5010903;28;20121;-70
2023/04/22 06:22:04;;;;;;;6.47;2.50;;;13.60;93.70;;;;;;5002057;28;20120;-69
2023/04/22 06:24:30;;;;;;;4.45;2.75;;;13.90;92.40;;;;;;5019227;28;20091;-69
2023/04/22 06:26:56;;;;;;;4.70;2.35;;;14.10;92.10;;;;;;5018611;28;20045;-70
2023/04/22 06:29:23;;;;;;;5.80;2.30;;;14.30;91.00;;;;;;5035163;28;20029;-69
2023/04/22 06:31:48;;;;;;;4.15;2.10;;;14.40;90.90;;;;;;5010167;28;20058;-70
2023/04/22 06:34:14;;;;;;;4.82;2.15;;;14.40;90.30;;;;;;5015162;28;20080;-70
2023/04/22 06:36:39;;;;;;;3.70;1.80;;;14.60;89.90;;;;;;5001478;28;20030;-70
2023/04/22 06:39:06;;;;;;;3.92;2.17;;;14.80;88.80;;;;;;4999104;28;20030;-70
2023/04/22 06:41:34;;;;;;;4.95;2.45;;;14.80;89.40;;;;;;5016436;28;20018;-71
2023/04/22 06:44:02;;;;;;;5.03;2.33;;;14.90;89.20;;;;;;5009034;28;20026;-70
2023/04/22 06:46:28;;;;;;;5.90;2.42;;;14.90;89.10;;;;;;4998454;28;20065;-70
2023/04/22 06:48:53;;;;;;;3.53;1.85;;;15.00;89.30;;;;;;4999446;28;20049;-69
2023/04/22 06:51:19;;;;;;;4.22;2.15;;;15.00;87.50;;;;;;5014125;28;20030;-69
2023/04/22 06:53:45;;;;;;;3.78;1.98;;;14.90;87.20;;;;;;5018975;28;20110;-69
2023/04/22 06:56:11;;;;;;;4.82;2.63;;;14.80;86.80;;;;;;5000012;28;20022;-69
2023/04/22 06:58:36;;;;;;;4.60;2.67;;;14.90;88.30;;;;;;4998782;28;20050;-71
2023/04/22 07:01:02;;;;;;;4.68;2.50;;;15.00;86.50;;;;;;5016765;28;20108;-70
2023/04/22 07:03:27;;;;;;;6.65;3.80;;;15.10;86.40;;;;;;5018533;28;20073;-70
2023/04/22 07:05:53;;;;;;;9.15;4.40;;;15.30;86.20;;;;;;5002590;28;20109;-70
2023/04/22 07:08:18;;;;;;;5.72;3.05;;;15.50;85.50;;;;;;4998711;28;20046;-70
2023/04/22 07:10:44;;;;;;;5.13;2.15;;;15.80;86.10;;;;;;5014672;28;20041;-71
2023/04/22 07:13:09;;;;;;;4.18;2.05;;;15.90;84.30;;;;;;5018229;28;20056;-71
2023/04/22 07:15:35;;;;;;;3.58;1.98;;;16.20;84.50;;;;;;5003462;28;20991;-70
2023/04/22 07:18:00;;;;;;;4.45;2.10;;;16.50;82.80;;;;;;4998553;28;20033;-70
2023/04/22 07:20:26;;;;;;;4.07;1.67;;;16.80;82.20;;;;;;5010510;28;20037;-70
2023/04/22 07:22:52;;;;;;;3.65;1.95;;;17.10;82.20;;;;;;5016426;28;20038;-70
2023/04/22 07:25:17;;;;;;;4.25;1.90;;;17.40;82.50;;;;;;5008703;28;20026;-70
2023/04/22 07:27:43;;;;;;;4.38;2.25;;;17.40;80.00;;;;;;5010586;28;20036;-70
2023/04/22 07:30:10;;;;;;;4.88;2.00;;;17.20;81.40;;;;;;5002388;28;20032;-70
2023/04/22 07:32:36;;;;;;;4.93;1.80;;;17.10;81.00;;;;;;5016458;28;20037;-70
2023/04/22 07:35:01;;;;;;;3.25;1.60;;;17.20;80.90;;;;;;5018078;28;20033;-70
2023/04/22 07:37:27;;;;;;;6.80;3.20;;;17.30;80.40;;;;;;5007169;28;20030;-71
2023/04/22 07:39:55;;;;;;;6.50;3.10;;;17.00;81.50;;;;;;5009307;28;20084;-70
2023/04/22 07:42:21;;;;;;;6.57;3.13;;;16.60;83.00;;;;;;5006313;28;20033;-70
2023/04/22 07:44:46;;;;;;;6.07;3.00;;;16.50;84.10;;;;;;5018590;28;20104;-71
2023/04/22 07:47:12;;;;;;;5.28;2.70;;;16.50;83.60;;;;;;5016613;28;20426;-70
2023/04/22 07:49:37;;;;;;;4.68;2.20;;;16.70;82.70;;;;;;5018853;28;20033;-70
2023/04/22 07:52:03;;;;;;;7.63;2.40;;;16.50;82.60;;;;;;4999873;28;20045;-70
2023/04/22 07:54:28;;;;;;;6.75;3.53;;;16.30;82.00;;;;;;4998388;28;20041;-70
2023/04/22 07:56:54;;;;;;;9.40;4.75;;;16.00;85.00;;;;;;5016125;28;20040;-70
2023/04/22 07:59:19;;;;;;;8.13;5.18;;;15.40;87.70;;;;;;5013895;28;20081;-70
2023/04/22 08:01:45;;;;;;;9.25;5.90;;;15.20;88.30;;;;;;4996651;28;20029;-70
2023/04/22 08:04:11;;;;;;;7.90;5.05;;;15.00;88.50;;;;;;4999000;28;20023;-70
2023/04/22 08:06:37;;;;;;;7.30;4.88;;;15.00;88.80;;;;;;5003628;28;20076;-70
2023/04/22 08:09:03;;;;;;;7.43;4.63;;;14.80;88.30;;;;;;5016385;28;20419;-70
2023/04/22 08:11:28;;;;;;;5.60;3.60;;;14.80;89.00;;;;;;4999125;28;20371;-70
2023/04/22 08:13:54;;;;;;;6.65;3.88;;;15.20;87.40;;;;;;4998013;28;20023;-70
2023/04/22 08:16:20;;;;;;;7.07;3.80;;;15.90;85.20;;;;;;5015296;28;20032;-70
2023/04/22 08:18:45;;;;;;;7.05;3.90;;;16.70;83.60;;;;;;5016888;28;20022;-70
2023/04/22 08:21:11;;;;;;;7.22;3.97;;;17.30;82.60;;;;;;5016604;28;20026;-70
2023/04/22 08:23:37;;;;;;;7.28;3.60;;;18.10;79.40;;;;;;5006872;28;20034;-71
2023/04/22 08:26:03;;;;;;;5.95;3.70;;;19.00;78.20;;;;;;4997323;28;20077;-71
2023/04/22 08:28:28;;;;;;;6.95;3.42;;;20.40;75.20;;;;;;4997818;28;20081;-71
2023/04/22 08:30:54;;;;;;;6.70;3.80;;;21.50;72.10;;;;;;4996559;28;20026;-70
2023/04/22 08:33:19;;;;;;;5.10;3.50;;;22.10;71.40;;;;;;5007597;28;20109;-70
2023/04/22 08:35:45;;;;;;;8.30;3.47;;;22.10;70.40;;;;;;5011240;28;20057;-69
2023/04/22 08:38:11;;;;;;;5.38;3.20;;;21.70;71.00;;;;;;5008877;28;20030;-70
2023/04/22 08:40:44;;;;;;;5.72;3.17;;;21.60;71.90;;;;;;5013546;28;20079;-69
2023/04/22 08:43:12;;;;;;;9.10;3.88;;;22.30;71.00;;;;;;5019157;28;20403;-69
2023/04/22 08:45:39;;;;;;;8.07;4.68;;;21.80;69.50;;;;;;5011884;28;20502;-69
2023/04/22 08:48:11;;;;;;;5.47;3.03;;;21.10;71.10;;;;;;5009690;28;20109;-71
2023/04/22 08:50:38;;;;;;;5.35;2.60;;;20.80;71.90;;;;;;5014435;28;20038;-70
2023/04/22 08:53:04;;;;;;;6.00;2.70;;;20.70;72.30;;;;;;5012759;28;20029;-70
2023/04/22 08:55:30;;;;;;;5.80;2.92;;;20.80;72.50;;;;;;5009674;28;20030;-71
2023/04/22 08:57:59;;;;;;;4.82;2.50;;;20.90;72.20;;;;;;5012352;28;20065;-71
2023/04/22 09:00:26;;;;;;;7.10;2.45;;;21.50;72.50;;;;;;5012125;28;20026;-71
2023/04/22 09:02:52;;;;;;;5.65;2.42;;;21.60;72.30;;;;;;5009003;28;20026;-70
2023/04/22 09:05:21;;;;;;;4.85;2.40;;;22.00;69.70;;;;;;4997434;28;20041;-70
2023/04/22 09:07:46;;;;;;;5.93;2.60;;;22.30;70.50;;;;;;5007095;28;20041;-70
2023/04/22 09:10:13;;;;;;;5.85;2.53;;;23.00;69.40;;;;;;4997989;28;20089;-70
2023/04/22 09:12:40;;;;;;;5.43;2.85;;;23.00;68.80;;;;;;4996430;28;20419;-69
2023/04/22 09:15:08;;;;;;;4.68;2.30;;;22.90;69.90;;;;;;5011827;28;20025;-69
2023/04/22 09:17:38;;;;;;;4.75;2.50;;;22.20;71.20;;;;;;5017321;28;20025;-69
2023/04/22 09:20:05;;;;;;;4.88;2.67;;;22.00;72.40;;;;;;5035738;28;20044;-70
2023/04/22 09:22:43;;;;;;;7.13;2.85;;;22.70;71.50;;;;;;5010935;28;20497;-69
2023/04/22 09:25:24;;;;;;;6.22;2.65;;;23.30;69.10;;;;;;5014993;28;20029;-71
2023/04/22 09:27:55;;;;;;;5.95;2.60;;;23.30;68.90;;;;;;5017953;28;20018;-71
2023/04/22 09:30:29;;;;;;;6.38;3.05;;;22.70;70.50;;;;;;5011031;28;20132;-71
2023/04/22 09:32:57;;;;;;;5.78;3.38;;;22.50;72.60;;;;;;5008305;28;21011;-69
2023/04/22 09:35:38;;;;;;;6.22;3.00;;;22.20;71.80;;;;;;5015738;28;20368;-69
2023/04/22 09:38:15;;;;;;;5.03;2.72;;;22.60;72.50;;;;;;5013770;28;20109;-70
2023/04/22 09:40:45;;;;;;;5.78;2.92;;;23.10;69.90;;;;;;5011958;28;20093;-69
2023/04/22 09:43:22;;;;;;;5.43;2.45;;;22.90;70.20;;;;;;5020788;28;20030;-69
2023/04/22 09:46:01;;;;;;;8.07;2.80;;;23.40;70.80;;;;;;5014316;28;20375;-70
2023/04/22 09:48:27;;;;;;;5.82;2.65;;;24.40;68.60;;;;;;5006062;28;20014;-70
2023/04/22 09:51:02;;;;;;;9.70;2.72;;;25.00;66.30;;;;;;5013004;28;20096;-70
2023/04/22 09:53:28;;;;;;;5.82;2.67;;;24.80;64.20;;;;;;5010855;28;20032;-69
2023/04/22 09:55:56;;;;;;;4.90;2.60;;;24.30;66.40;;;;;;5020273;28;20021;-71
2023/04/22 09:58:26;;;;;;;5.40;2.28;;;24.80;66.20;;;;;;5011623;28;20046;-70
2023/04/22 10:00:55;;;;;;;6.75;2.35;;;25.90;64.00;;;;;;5009650;28;20029;-70
2023/04/22 10:03:21;;;;;;;6.82;2.42;;;25.90;63.00;;;;;;5007066;28;20022;-71
2023/04/22 10:05:47;;;;;;;6.10;2.00;;;26.30;60.00;;;;;;5018045;28;20492;-71
2023/04/22 10:08:14;;;;;;;5.88;1.52;;;25.70;59.50;;;;;;5013038;28;20036;-70
2023/04/22 10:10:40;;;;;;;4.57;1.75;;;25.10;54.60;;;;;;5021114;28;20359;-70
2023/04/22 10:13:07;;;;;;;7.90;1.67;;;26.20;53.90;;;;;;5019698;28;20026;-71
2023/04/22 10:15:48;;;;;;;6.10;2.08;;;26.40;55.40;;;;;;5024484;28;20024;-71
2023/04/22 10:18:19;;;;;;;4.97;1.70;;;26.50;53.00;;;;;;5019533;28;20037;-70
2023/04/22 10:20:46;;;;;;;6.97;2.00;;;26.90;54.30;;;;;;5017191;28;20034;-70
2023/04/22 10:23:17;;;;;;;3.28;1.67;;;25.70;53.60;;;;;;5011589;28;20449;-70
2023/04/22 10:25:52;;;;;;;6.15;1.92;;;25.10;52.20;;;;;;5010920;28;20088;-70
2023/04/22 10:28:20;;;;;;;5.10;1.65;;;25.00;51.80;;;;;;5016018;28;20076;-70
2023/04/22 10:30:46;;;;;;;4.35;1.35;;;25.00;52.30;;;;;;5011560;28;20497;-70
2023/04/22 10:33:35;;;;;;;4.65;1.75;;;24.80;51.70;;;;;;5014324;28;20046;-70
2023/04/22 10:36:18;;;;;;;7.55;1.90;;;25.50;55.30;;;;;;5007442;28;20423;-71
2023/04/22 10:38:53;;;;;;;7.53;1.83;;;25.20;52.40;;;;;;5012008;28;20029;-70
2023/04/22 10:41:28;;;;;;;4.32;1.92;;;24.40;51.90;;;;;;5012771;28;20367;-70
2023/04/22 10:43:59;;;;;;;3.60;1.52;;;23.90;53.60;;;;;;5025542;28;20485;-71
2023/04/22 10:46:38;;;;;;;4.57;1.70;;;23.90;55.00;;;;;;5041160;28;20021;-71
2023/04/22 10:49:12;;;;;;;4.63;1.65;;;24.20;54.60;;;;;;5012303;28;20033;-71
2023/04/22 10:51:38;;;;;;;;;;;24.30;54.50;;;;;;5009497;28;20026;-71
2023/04/22 10:54:04;;;;;;;6.03;1.80;;;24.30;54.40;;;;;;5016549;28;20213;-71
2023/04/22 10:56:30;;;;;;;4.07;1.83;;;24.20;54.60;;;;;;5022610;28;20018;-70
2023/04/22 10:58:56;;;;;;;4.15;1.60;;;24.40;55.60;;;;;;5015446;28;20061;-71
2023/04/22 11:01:21;;;;;;;6.43;2.00;;;24.80;55.90;;;;;;5010846;28;20038;-71
2023/04/22 11:03:47;;;;;;;4.95;1.80;;;24.70;54.10;;;;;;5008310;28;20033;-71
2023/04/22 11:06:18;;;;;;;5.03;1.80;;;24.90;55.10;;;;;;5014012;28;20104;-70
2023/04/22 11:09:06;;;;;;;4.78;1.92;;;24.70;53.60;;;;;;4997951;28;20025;-71
2023/04/22 11:11:31;;;;;;;5.05;1.88;;;23.70;54.90;;;;;;4992558;28;20490;-70
2023/04/22 11:13:57;;;;;;;3.92;1.75;;;23.50;55.90;;;;;;4994880;28;20079;-71
2023/04/22 11:16:23;;;;;;;5.57;1.70;;;23.70;56.00;;;;;;4991813;28;21653;-71
2023/04/22 11:18:49;;;;;;;3.95;1.65;;;23.20;54.30;;;;;;4996757;28;20087;-71
2023/04/22 11:21:15;;;;;;;5.00;1.77;;;23.20;55.30;;;;;;4991782;28;20497;-71
2023/04/22 11:23:51;;;;;;;3.63;1.70;;;23.40;54.80;;;;;;4994327;28;20046;-71
2023/04/22 11:26:17;;;;;;;5.50;1.60;;;24.30;54.80;;;;;;5003993;28;20030;-70
2023/04/22 11:28:46;;;;;;;6.40;1.80;;;24.00;53.20;;;;;;4999257;28;20025;-71
2023/04/22 11:31:14;;;;;;;6.05;2.28;;;24.00;55.40;;;;;;4999205;28;20068;-70
2023/04/22 11:33:40;;;;;;;4.95;1.67;;;24.60;53.10;;;;;;5011720;28;20036;-70
2023/04/22 11:36:11;;;;;;;4.38;1.90;;;24.50;51.60;;;;;;5002520;28;20034;-69
2023/04/22 11:38:37;;;;;;;5.85;1.75;;;24.50;52.40;;;;;;5010832;28;20034;-69
2023/04/22 11:41:03;;;;;;;6.38;1.50;;;24.20;52.50;;;;;;5011337;28;20034;-69
2023/04/22 11:43:32;;;;;;;3.30;1.50;;;23.30;54.20;;;;;;5007774;28;20044;-69
2023/04/22 11:45:57;;;;;;;4.82;1.52;;;23.10;56.20;;;;;;5011093;28;20370;-70
2023/04/22 11:48:23;;;;;;;6.10;1.92;;;23.30;56.50;;;;;;5011373;28;20025;-71
2023/04/22 11:50:50;;;;;;;5.15;1.77;;;23.30;53.90;;;;;;5006137;28;20089;-71
2023/04/22 11:53:22;;;;;;;6.75;2.10;;;23.00;55.30;;;;;;5014655;28;20328;-71
2023/04/22 11:55:52;;;;;;;5.25;1.70;;;22.80;55.40;;;;;;5006950;28;20040;-71
2023/04/22 11:58:26;;;;;;;7.40;2.28;;;22.50;55.70;;;;;;5017309;28;20454;-71
2023/04/22 12:00:58;;;;;;;5.38;1.80;;;22.60;55.50;;;;;;4998221;28;20031;-71
2023/04/22 12:03:25;;;;;;;6.30;2.13;;;22.40;55.70;;;;;;5016667;28;20022;-71
2023/04/22 12:05:59;;;;;;;4.57;1.80;;;22.20;56.50;;;;;;5014836;28;20053;-71
2023/04/22 12:08:30;;;;;;;4.90;2.10;;;22.10;57.10;;;;;;5016522;28;20053;-71
2023/04/22 12:11:00;;;;;;;6.25;1.88;;;22.20;56.90;;;;;;5015279;28;20056;-71
2023/04/22 12:13:32;;;;;;;6.55;2.00;;;22.10;56.70;;;;;;5015928;28;20038;-71
2023/04/22 12:16:00;;;;;;;3.65;1.70;;;22.40;57.20;;;;;;5015190;28;20033;-71
2023/04/22 12:18:30;;;;;;;4.65;1.80;;;22.50;56.30;;;;;;5014734;28;20029;-71
2023/04/22 12:21:27;;;;;;;4.53;2.10;;;22.70;56.80;;;;;;5016188;28;20037;-71
2023/04/22 12:23:58;;;;;;;7.55;2.20;;;22.90;56.50;;;;;;5016575;28;20034;-71
2023/04/22 12:26:25;;;;;;;4.05;1.90;;;23.20;55.60;;;;;;5014928;28;20033;-71
2023/04/22 12:28:52;;;;;;;5.97;1.80;;;23.40;56.30;;;;;;5015366;28;20319;-71
2023/04/22 12:31:18;;;;;;;5.03;1.60;;;23.20;56.40;;;;;;5014010;28;20033;-71
2023/04/22 12:33:45;;;;;;;3.97;1.90;;;23.20;56.10;;;;;;5016282;28;20108;-71
2023/04/22 12:36:11;;;;;;;7.45;2.10;;;22.90;55.00;;;;;;5010976;28;20033;-71
2023/04/22 12:38:37;;;;;;;4.72;1.92;;;23.20;55.90;;;;;;5009253;28;20089;-71
2023/04/22 12:41:04;;;;;;;4.75;1.58;;;23.20;56.00;;;;;;4996804;28;20030;-71
2023/04/22 12:43:32;;;;;;;4.80;2.08;;;23.30;55.90;;;;;;4997060;28;20033;-71
2023/04/22 12:45:58;;;;;;;6.25;1.80;;;23.30;54.60;;;;;;5008822;28;20491;-71
2023/04/22 12:48:23;;;;;;;6.82;1.75;;;23.10;55.60;;;;;;5015044;28;20108;-71
2023/04/22 12:50:49;;;;;;;6.70;1.95;;;23.00;57.20;;;;;;5013945;28;20148;-71